createdAt,value
2019-05-26T00:00:26.033Z,98689.39
2019-05-26T00:02:55.452Z,98694.91
2019-05-26T00:05:24.657Z,98692.02
2019-05-26T00:07:53.899Z,98685.21
2019-05-26T00:10:23.081Z,98682.76
2019-05-26T00:12:52.258Z,98683.30
2019-05-26T00:15:21.558Z,98677.00
2019-05-26T00:17:50.765Z,98675.09
2019-05-26T00:20:20.037Z,98675.28
2019-05-26T00:22:49.197Z,98670.59
2019-05-26T00:25:18.438Z,98667.37
2019-05-26T00:27:47.656Z,98672.76
2019-05-26T00:30:17.055Z,98671.38
2019-05-26T00:32:46.480Z,98664.85
2019-05-26T00:35:15.972Z,98659.92
2019-05-26T00:37:49.616Z,98656.33
2019-05-26T00:40:16.287Z,98654.87
2019-05-26T00:42:45.545Z,98655.03
2019-05-26T00:45:14.889Z,98642.94
2019-05-26T00:47:44.155Z,98644.27
2019-05-26T00:50:13.637Z,98649.91
2019-05-26T00:52:42.863Z,98646.72
2019-05-26T00:55:12.238Z,98649.17
2019-05-26T00:57:41.390Z,98648.05
2019-05-26T01:00:11.466Z,98648.58
2019-05-26T01:02:40.755Z,98649.99
2019-05-26T01:05:10.755Z,98657.62
2019-05-26T01:07:39.910Z,98653.63
2019-05-26T01:10:10.286Z,98660.52
2019-05-26T01:12:39.493Z,98663.02
2019-05-26T01:15:09.713Z,98668.88
2019-05-26T01:17:38.971Z,98670.43
2019-05-26T01:20:08.278Z,98671.53
2019-05-26T01:22:37.451Z,98667.57
2019-05-26T01:25:07.863Z,98664.26
2019-05-26T01:27:37.161Z,98661.54
2019-05-26T01:30:06.628Z,98665.82
2019-05-26T01:32:35.850Z,98664.91
2019-05-26T01:35:05.538Z,98666.08
2019-05-26T01:37:35.243Z,98667.91
2019-05-26T01:40:05.314Z,98675.33
2019-05-26T01:42:34.622Z,98670.37
2019-05-26T01:45:04.020Z,98672.76
2019-05-26T01:47:33.223Z,98668.72
2019-05-26T01:50:02.364Z,98671.25
2019-05-26T01:52:31.609Z,98666.47
2019-05-26T01:55:00.745Z,98667.05
2019-05-26T01:57:30.019Z,98665.84
2019-05-26T01:59:59.210Z,98667.61
2019-05-26T02:02:28.498Z,98662.59
2019-05-26T02:04:57.763Z,98661.49
2019-05-26T02:07:26.942Z,98666.75
2019-05-26T02:09:56.139Z,98664.48
2019-05-26T02:12:25.347Z,98676.09
2019-05-26T02:14:54.546Z,98675.33
2019-05-26T02:17:23.785Z,98669.39
2019-05-26T02:19:53.133Z,98672.03
2019-05-26T02:22:22.355Z,98673.29
2019-05-26T02:24:51.599Z,98671.98
2019-05-26T02:27:20.820Z,98672.11
2019-05-26T02:29:49.987Z,98676.63
2019-05-26T02:32:19.204Z,98677.13
2019-05-26T02:34:48.413Z,98683.09
2019-05-26T02:37:17.607Z,98676.44
2019-05-26T02:39:46.846Z,98685.70
2019-05-26T02:42:16.039Z,98674.16
2019-05-26T02:44:45.298Z,98676.05
2019-05-26T02:47:14.482Z,98674.70
2019-05-26T02:49:43.704Z,98673.38
2019-05-26T02:52:12.877Z,98671.86
2019-05-26T02:54:42.144Z,98674.70
2019-05-26T02:57:11.836Z,98671.85
2019-05-26T02:59:41.041Z,98663.05
2019-05-26T03:02:10.247Z,98663.05
2019-05-26T03:04:41.247Z,98685.78
2019-05-26T03:07:11.701Z,98688.61
2019-05-26T03:09:41.629Z,98679.71
2019-05-26T03:12:10.824Z,98686.06
2019-05-26T03:14:42.853Z,98678.20
2019-05-26T03:17:12.018Z,98676.03
2019-05-26T03:19:43.765Z,98676.50
2019-05-26T03:22:16.076Z,98683.83
2019-05-26T03:24:49.065Z,98683.20
2019-05-26T03:27:18.370Z,98684.20
2019-05-26T03:29:47.779Z,98682.81
2019-05-26T03:32:17.006Z,98684.88
2019-05-26T03:34:46.267Z,98681.11
2019-05-26T03:37:15.552Z,98682.92
2019-05-26T03:39:46.315Z,98682.25
2019-05-26T03:42:15.819Z,98686.14
2019-05-26T03:44:44.998Z,98688.38
2019-05-26T03:47:16.871Z,98691.25
2019-05-26T03:49:45.455Z,98688.70
2019-05-26T03:52:14.703Z,98687.73
2019-05-26T03:54:43.935Z,98689.69
2019-05-26T03:57:13.188Z,98692.13
2019-05-26T03:59:42.376Z,98694.68
2019-05-26T04:02:11.579Z,98694.77
2019-05-26T04:04:40.782Z,98696.25
2019-05-26T04:07:10.009Z,98697.94
2019-05-26T04:09:39.210Z,98695.34
2019-05-26T04:12:08.405Z,98702.43
2019-05-26T04:14:37.663Z,98702.64
2019-05-26T04:17:06.919Z,98693.45
2019-05-26T04:19:36.110Z,98698.13
2019-05-26T04:22:05.372Z,98694.28
2019-05-26T04:24:34.547Z,98701.97
2019-05-26T04:27:03.808Z,98701.62
2019-05-26T04:29:32.974Z,98699.17
2019-05-26T04:32:02.551Z,98700.70
2019-05-26T04:34:31.815Z,98697.59
2019-05-26T04:37:00.998Z,98705.56
2019-05-26T04:39:30.165Z,98703.01
2019-05-26T04:41:59.364Z,98700.59
2019-05-26T04:44:28.596Z,98707.95
2019-05-26T04:46:57.779Z,98705.38
2019-05-26T04:49:27.004Z,98703.22
2019-05-26T04:51:56.177Z,98706.86
2019-05-26T04:54:58.167Z,98703.46
2019-05-26T04:57:27.726Z,98709.77
2019-05-26T04:59:56.914Z,98705.41
2019-05-26T05:02:26.093Z,98711.16
2019-05-26T05:04:55.554Z,98709.62
2019-05-26T05:07:28.306Z,98718.19
2019-05-26T05:09:55.744Z,98716.52
2019-05-26T05:12:24.907Z,98714.22
2019-05-26T05:14:54.185Z,98718.55
2019-05-26T05:17:23.417Z,98715.06
2019-05-26T05:19:52.693Z,98714.66
2019-05-26T05:22:21.891Z,98718.77
2019-05-26T05:24:51.147Z,98720.91
2019-05-26T05:27:20.366Z,98723.07
2019-05-26T05:29:49.558Z,98730.50
2019-05-26T05:32:18.765Z,98734.89
2019-05-26T05:34:47.996Z,98733.58
2019-05-26T05:37:17.182Z,98734.67
2019-05-26T05:39:46.396Z,98734.16
2019-05-26T05:42:15.549Z,98741.38
2019-05-26T05:44:44.779Z,98740.42
2019-05-26T05:47:13.951Z,98742.61
2019-05-26T05:49:43.282Z,98742.23
2019-05-26T05:52:12.640Z,98746.44
2019-05-26T05:54:41.930Z,98742.93
2019-05-26T05:57:11.176Z,98744.61
2019-05-26T05:59:40.377Z,98742.80
2019-05-26T06:02:09.563Z,98738.68
2019-05-26T06:04:38.803Z,98741.20
2019-05-26T06:07:08.034Z,98749.17
2019-05-26T06:09:37.245Z,98741.27
2019-05-26T06:12:06.455Z,98739.88
2019-05-26T06:14:35.669Z,98746.96
2019-05-26T06:17:04.908Z,98746.60
2019-05-26T06:19:34.104Z,98740.13
2019-05-26T06:22:03.311Z,98743.02
2019-05-26T06:24:32.458Z,98747.46
2019-05-26T06:27:01.773Z,98740.64
2019-05-26T06:29:30.963Z,98737.88
2019-05-26T06:32:00.598Z,98743.11
2019-05-26T06:34:30.072Z,98744.64
2019-05-26T06:36:59.451Z,98741.29
2019-05-26T06:39:28.688Z,98742.94
2019-05-26T06:41:57.943Z,98743.68
2019-05-26T06:44:27.124Z,98737.22
2019-05-26T06:46:56.376Z,98741.33
2019-05-26T06:49:25.551Z,98739.09
2019-05-26T06:51:54.789Z,98743.92
2019-05-26T06:54:23.990Z,98739.75
2019-05-26T06:56:53.203Z,98736.69
2019-05-26T06:59:22.403Z,98736.88
2019-05-26T07:01:51.638Z,98738.72
2019-05-26T07:04:20.854Z,98735.05
2019-05-26T07:06:50.088Z,98732.81
2019-05-26T07:09:19.265Z,98734.74
2019-05-26T07:11:57.066Z,98728.08
2019-05-26T07:14:19.684Z,98732.92
2019-05-26T07:16:54.742Z,98729.80
2019-05-26T07:19:24.838Z,98733.19
2019-05-26T07:21:54.235Z,98734.98
2019-05-26T07:24:23.476Z,98730.70
2019-05-26T07:26:54.170Z,98733.19
2019-05-26T07:29:23.396Z,98729.67
2019-05-26T07:31:52.843Z,98727.62
2019-05-26T07:34:22.210Z,98728.86
2019-05-26T07:36:51.532Z,98729.18
2019-05-26T07:39:20.805Z,98730.73
2019-05-26T07:42:08.287Z,98726.33
2019-05-26T07:44:21.055Z,98728.22
2019-05-26T07:46:50.368Z,98732.58
2019-05-26T07:49:19.715Z,98733.49
2019-05-26T07:51:49.001Z,98723.20
2019-05-26T07:54:25.544Z,98722.27
2019-05-26T07:56:49.287Z,98724.00
2019-05-26T07:59:18.542Z,98727.00
2019-05-26T08:01:47.748Z,98726.75
2019-05-26T08:04:16.976Z,98725.13
2019-05-26T08:06:46.326Z,98720.39
2019-05-26T08:09:15.578Z,98720.41
2019-05-26T08:11:44.874Z,98727.30
2019-05-26T08:14:14.087Z,98720.01
2019-05-26T08:16:43.356Z,98722.09
2019-05-26T08:19:12.688Z,98723.80
2019-05-26T08:21:41.958Z,98725.72
2019-05-26T08:24:11.232Z,98721.78
2019-05-26T08:26:40.562Z,98721.42
2019-05-26T08:29:10.043Z,98721.19
2019-05-26T08:31:39.261Z,98704.56
2019-05-26T08:34:08.511Z,98702.61
2019-05-26T08:36:37.951Z,98697.22
2019-05-26T08:39:09.536Z,98695.38
2019-05-26T08:41:38.829Z,98704.63
2019-05-26T08:44:08.455Z,98702.27
2019-05-26T08:46:37.707Z,98693.66
2019-05-26T08:49:06.918Z,98693.22
2019-05-26T08:51:36.135Z,98699.59
2019-05-26T08:54:05.479Z,98698.59
2019-05-26T08:56:34.822Z,98689.52
2019-05-26T08:59:04.037Z,98687.48
2019-05-26T09:01:33.729Z,98691.06
2019-05-26T09:04:03.036Z,98693.56
2019-05-26T09:06:32.455Z,98686.62
2019-05-26T09:09:01.692Z,98694.03
2019-05-26T09:11:30.978Z,98687.11
2019-05-26T09:14:03.218Z,98679.62
2019-05-26T09:16:32.428Z,98680.91
2019-05-26T09:19:01.682Z,98676.09
2019-05-26T09:21:30.944Z,98674.69
2019-05-26T09:24:00.173Z,98679.65
2019-05-26T09:26:29.493Z,98671.75
2019-05-26T09:28:59.678Z,98673.13
2019-05-26T09:31:29.574Z,98671.27
2019-05-26T09:33:58.861Z,98671.46
2019-05-26T09:36:28.092Z,98666.13
2019-05-26T09:38:57.315Z,98666.16
2019-05-26T09:41:26.596Z,98667.84
2019-05-26T09:43:55.853Z,98663.05
2019-05-26T09:46:25.127Z,98661.39
2019-05-26T09:48:54.389Z,98658.58
2019-05-26T09:51:23.623Z,98654.73
2019-05-26T09:54:01.270Z,98652.52
2019-05-26T09:56:24.381Z,98650.95
2019-05-26T09:58:53.654Z,98650.42
2019-05-26T10:01:22.907Z,98649.55
2019-05-26T10:03:52.153Z,98645.59
2019-05-26T10:06:21.483Z,98644.96
2019-05-26T10:08:51.515Z,98647.56
2019-05-26T10:11:20.748Z,98642.25
2019-05-26T10:13:50.054Z,98639.06
2019-05-26T10:16:19.305Z,98639.20
2019-05-26T10:18:48.523Z,98632.89
2019-05-26T10:21:17.788Z,98648.58
2019-05-26T10:23:47.037Z,98644.66
2019-05-26T10:26:16.304Z,98635.49
2019-05-26T10:28:45.556Z,98634.70
2019-05-26T10:31:14.953Z,98643.38
2019-05-26T10:33:44.285Z,98636.61
2019-05-26T10:36:13.524Z,98625.72
2019-05-26T10:38:42.967Z,98631.95
2019-05-26T10:41:12.314Z,98631.33
2019-05-26T10:43:47.361Z,98631.61
2019-05-26T10:46:12.738Z,98631.28
2019-05-26T10:48:42.067Z,98633.75
2019-05-26T10:51:11.357Z,98624.15
2019-05-26T10:53:40.674Z,98627.67
2019-05-26T10:56:09.973Z,98625.34
2019-05-26T10:58:39.247Z,98616.52
2019-05-26T11:01:08.478Z,98618.70
2019-05-26T11:03:37.718Z,98608.56
2019-05-26T11:06:06.992Z,98616.34
2019-05-26T11:08:36.273Z,98623.44
2019-05-26T11:11:05.566Z,98621.17
2019-05-26T11:13:34.821Z,98617.72
2019-05-26T11:16:04.410Z,98618.39
2019-05-26T11:18:33.677Z,98615.13
2019-05-26T11:21:02.984Z,98610.91
2019-05-26T11:23:32.285Z,98611.94
2019-05-26T11:26:01.616Z,98599.80
2019-05-26T11:28:30.807Z,98599.33
2019-05-26T11:31:00.131Z,98593.94
2019-05-26T11:33:28.412Z,98595.14
2019-05-26T11:35:56.677Z,98589.78
2019-05-26T11:38:24.968Z,98583.89
2019-05-26T11:40:53.279Z,98578.12
2019-05-26T11:43:21.512Z,98585.41
2019-05-26T11:45:49.795Z,98578.40
2019-05-26T11:48:17.931Z,98570.89
2019-05-26T11:50:46.201Z,98570.15
2019-05-26T11:53:14.413Z,98566.73
2019-05-26T11:55:42.992Z,98564.59
2019-05-26T11:58:11.564Z,98575.49
2019-05-26T12:00:39.786Z,98574.72
2019-05-26T12:03:08.032Z,98572.86
2019-05-26T12:05:36.262Z,98566.13
2019-05-26T12:08:04.519Z,98559.84
2019-05-26T12:10:32.748Z,98561.96
2019-05-26T12:13:01.040Z,98555.78
2019-05-26T12:15:29.269Z,98557.33
2019-05-26T12:17:57.417Z,98552.53
2019-05-26T12:38:20.898Z,98534.59
2019-05-26T12:40:49.116Z,98529.94
2019-05-26T12:43:17.336Z,98533.51
2019-05-26T12:45:45.549Z,98528.97
2019-05-26T12:48:13.820Z,98526.89
2019-05-26T12:50:42.105Z,98520.91
2019-05-26T12:53:10.373Z,98523.11
2019-05-26T12:55:38.560Z,98518.67
2019-05-26T12:58:06.793Z,98514.91
2019-05-26T13:00:48.323Z,98517.58
2019-05-26T13:03:07.140Z,98515.17
2019-05-26T13:05:36.405Z,98520.78
2019-05-26T13:08:05.764Z,98511.19
2019-05-26T13:10:34.998Z,98512.52
2019-05-26T13:13:04.369Z,98501.86
2019-05-26T13:15:33.631Z,98500.96
2019-05-26T13:18:02.918Z,98491.39
2019-05-26T13:20:32.183Z,98490.42
2019-05-26T13:23:01.391Z,98480.25
2019-05-26T13:25:30.614Z,98484.61
2019-05-26T13:27:59.857Z,98486.33
2019-05-26T13:30:29.069Z,98489.98
2019-05-26T13:32:58.249Z,98486.95
2019-05-26T13:35:27.467Z,98482.39
2019-05-26T13:37:56.711Z,98484.78
2019-05-26T13:40:29.431Z,98477.52
2019-05-26T13:42:56.889Z,98466.78
2019-05-26T13:45:26.163Z,98476.17
2019-05-26T13:47:55.419Z,98472.16
2019-05-26T13:50:25.033Z,98469.53
2019-05-26T13:52:55.620Z,98474.81
2019-05-26T13:55:24.885Z,98473.94
2019-05-26T13:57:54.110Z,98467.20
2019-05-26T14:00:23.667Z,98467.41
2019-05-26T14:02:53.085Z,98467.02
2019-05-26T14:05:22.615Z,98468.56
2019-05-26T14:07:52.020Z,98464.95
2019-05-26T14:10:32.761Z,98461.66
2019-05-26T14:13:02.003Z,98459.32
2019-05-26T14:15:38.254Z,98455.39
2019-05-26T14:18:03.619Z,98460.03
2019-05-26T14:20:39.785Z,98459.85
2019-05-26T14:23:10.262Z,98454.83
2019-05-26T14:25:39.713Z,98455.77
2019-05-26T14:28:09.186Z,98447.45
2019-05-26T14:30:38.457Z,98451.28
2019-05-26T14:33:07.672Z,98442.86
2019-05-26T14:35:36.893Z,98450.05
2019-05-26T14:38:06.082Z,98449.03
2019-05-26T14:40:35.363Z,98441.30
2019-05-26T14:43:04.559Z,98440.55
2019-05-26T14:45:33.828Z,98442.95
2019-05-26T14:48:03.143Z,98442.23
2019-05-26T14:50:32.328Z,98439.88
2019-05-26T14:53:01.529Z,98432.52
2019-05-26T14:55:30.709Z,98432.52
2019-05-26T14:58:14.304Z,98432.50
2019-05-26T15:00:30.914Z,98431.03
2019-05-26T15:03:00.145Z,98429.27
2019-05-26T15:05:29.334Z,98429.16
2019-05-26T15:07:58.557Z,98424.88
2019-05-26T15:10:27.800Z,98425.96
2019-05-26T15:12:57.024Z,98422.48
2019-05-26T15:15:26.246Z,98420.83
2019-05-26T15:17:55.484Z,98418.41
2019-05-26T15:20:24.743Z,98416.28
2019-05-26T15:22:53.990Z,98420.70
2019-05-26T15:25:23.189Z,98415.98
2019-05-26T15:27:52.467Z,98419.03
2019-05-26T15:30:21.846Z,98412.48
2019-05-26T15:32:51.047Z,98415.09
2019-05-26T15:35:20.266Z,98408.16
2019-05-26T15:37:49.468Z,98413.06
2019-05-26T15:40:19.197Z,98412.48
2019-05-26T15:42:48.506Z,98411.98
2019-05-26T15:45:17.762Z,98405.47
2019-05-26T15:47:46.984Z,98396.54
2019-05-26T15:50:16.414Z,98387.36
2019-05-26T15:52:45.689Z,98391.45
2019-05-26T15:55:15.404Z,98393.34
2019-05-26T15:57:44.802Z,98395.16
2019-05-26T16:00:14.484Z,98394.06
2019-05-26T16:02:43.731Z,98388.84
2019-05-26T16:05:13.419Z,98384.93
2019-05-26T16:07:42.677Z,98384.63
2019-05-26T16:10:12.155Z,98382.28
2019-05-26T16:12:41.340Z,98380.25
2019-05-26T16:15:10.860Z,98376.50
2019-05-26T16:17:40.094Z,98382.17
2019-05-26T16:20:10.101Z,98379.53
2019-05-26T16:22:39.280Z,98387.38
2019-05-26T16:25:08.725Z,98392.54
2019-05-26T16:27:37.978Z,98382.64
2019-05-26T16:30:07.521Z,98377.12
2019-05-26T16:32:36.799Z,98381.91
2019-05-26T16:35:06.168Z,98382.88
2019-05-26T16:37:35.477Z,98390.30
2019-05-26T16:40:05.536Z,98390.94
2019-05-26T16:42:34.741Z,98382.97
2019-05-26T16:45:04.211Z,98378.97
2019-05-26T16:47:33.514Z,98377.37
2019-05-26T16:50:02.798Z,98374.48
2019-05-26T16:52:32.077Z,98375.39
2019-05-26T16:55:01.587Z,98371.23
2019-05-26T16:57:30.916Z,98375.39
2019-05-26T17:00:00.269Z,98375.41
2019-05-26T17:02:29.557Z,98377.87
2019-05-26T17:04:58.814Z,98378.00
2019-05-26T17:07:28.055Z,98375.91
2019-05-26T17:09:57.313Z,98369.48
2019-05-26T17:12:26.553Z,98363.41
2019-05-26T17:14:55.795Z,98368.95
2019-05-26T17:17:25.056Z,98370.42
2019-05-26T17:19:55.004Z,98368.41
2019-05-26T17:22:24.224Z,98368.67
2019-05-26T17:24:53.491Z,98363.53
2019-05-26T17:27:22.727Z,98363.20
2019-05-26T17:29:51.993Z,98367.90
2019-05-26T17:32:21.263Z,98361.45
2019-05-26T17:34:50.549Z,98360.11
2019-05-26T17:37:19.825Z,98362.49
2019-05-26T17:39:49.060Z,98361.31
2019-05-26T17:42:18.306Z,98359.54
2019-05-26T17:44:47.555Z,98363.31
2019-05-26T17:47:29.164Z,98363.62
2019-05-26T17:49:47.807Z,98372.60
2019-05-26T17:52:17.060Z,98365.73
2019-05-26T17:54:46.260Z,98363.03
2019-05-26T17:57:15.578Z,98363.34
2019-05-26T17:59:44.771Z,98356.95
2019-05-26T18:02:14.064Z,98357.73
2019-05-26T18:04:42.280Z,98351.47
2019-05-26T18:07:10.530Z,98350.46
2019-05-26T18:09:44.283Z,98357.49
2019-05-26T18:12:08.899Z,98353.89
2019-05-26T18:14:37.705Z,98355.22
2019-05-26T18:17:05.941Z,98344.02
2019-05-26T18:19:34.130Z,98345.41
2019-05-26T18:22:02.550Z,98340.41
2019-05-26T18:24:30.912Z,98335.91
2019-05-26T18:26:59.128Z,98338.47
2019-05-26T18:29:27.400Z,98341.15
2019-05-26T18:31:55.818Z,98342.55
2019-05-26T18:34:24.281Z,98343.91
2019-05-26T18:36:52.607Z,98340.92
2019-05-26T18:39:20.955Z,98340.58
2019-05-26T18:41:49.602Z,98338.92
2019-05-26T18:44:17.987Z,98331.27
2019-05-26T18:46:46.326Z,98330.92
2019-05-26T18:49:14.661Z,98332.62
2019-05-26T18:51:42.873Z,98339.78
2019-05-26T18:54:11.100Z,98336.76
2019-05-26T18:56:39.298Z,98335.27
2019-05-26T18:59:07.602Z,98330.55
2019-05-26T19:01:36.871Z,98333.22
2019-05-26T19:04:06.164Z,98328.22
2019-05-26T19:06:35.458Z,98332.22
2019-05-26T19:09:07.195Z,98337.52
2019-05-26T19:11:36.408Z,98339.94
2019-05-26T19:14:05.937Z,98337.39
2019-05-26T19:16:35.127Z,98338.63
2019-05-26T19:19:04.866Z,98336.84
2019-05-26T19:21:34.168Z,98338.20
2019-05-26T19:24:03.532Z,98342.77
2019-05-26T19:26:32.738Z,98344.23
2019-05-26T19:29:01.980Z,98342.91
2019-05-26T19:31:31.339Z,98344.88
2019-05-26T19:34:00.648Z,98346.96
2019-05-26T19:36:29.979Z,98343.45
2019-05-26T19:38:59.172Z,98351.02
2019-05-26T19:41:28.408Z,98355.14
2019-05-26T19:43:57.683Z,98358.91
2019-05-26T19:46:27.204Z,98358.91
2019-05-26T19:48:56.737Z,98359.10
2019-05-26T19:51:25.962Z,98358.91
2019-05-26T19:53:55.228Z,98363.48
2019-05-26T19:56:24.463Z,98362.34
2019-05-26T19:58:53.682Z,98362.42
2019-05-26T20:01:22.943Z,98357.56
2019-05-26T20:03:52.208Z,98357.67
2019-05-26T20:06:21.612Z,98357.67
2019-05-26T20:08:50.838Z,98356.84
2019-05-26T20:11:20.115Z,98352.24
2019-05-26T20:13:49.314Z,98355.16
2019-05-26T20:16:18.563Z,98356.04
2019-05-26T20:18:47.813Z,98360.22
2019-05-26T20:21:17.279Z,98354.91
2019-05-26T20:23:46.598Z,98364.20
2019-05-26T20:26:15.920Z,98354.61
2019-05-26T20:28:45.295Z,98354.61
2019-05-26T20:31:14.625Z,98368.24
2019-05-26T20:33:43.860Z,98370.41
2019-05-26T20:36:13.082Z,98359.02
2019-05-26T20:38:42.413Z,98361.16
2019-05-26T20:41:11.745Z,98360.56
2019-05-26T20:43:41.259Z,98355.05
2019-05-26T20:46:10.658Z,98358.03
2019-05-26T20:48:39.981Z,98360.02
2019-05-26T20:51:09.239Z,98355.41
2019-05-26T20:53:40.500Z,98356.89
2019-05-26T20:56:09.367Z,98351.41
2019-05-26T20:58:38.683Z,98354.45
2019-05-26T21:01:07.862Z,98355.81
2019-05-26T21:03:37.081Z,98359.73
2019-05-26T21:06:06.405Z,98351.83
2019-05-26T21:08:35.740Z,98360.22
2019-05-26T21:11:04.993Z,98354.42
2019-05-26T21:13:34.241Z,98350.88
2019-05-26T21:16:03.477Z,98358.78
2019-05-26T21:18:32.682Z,98350.94
2019-05-26T21:21:01.921Z,98350.13
2019-05-26T21:23:31.126Z,98348.27
2019-05-26T21:26:00.303Z,98341.59
2019-05-26T21:28:29.525Z,98348.32
2019-05-26T21:30:58.791Z,98348.83
2019-05-26T21:33:28.020Z,98344.63
2019-05-26T21:35:57.230Z,98350.32
2019-05-26T21:38:26.494Z,98346.20
2019-05-26T21:40:55.712Z,98339.13
2019-05-26T21:43:24.974Z,98343.88
2019-05-26T21:45:54.260Z,98341.58
2019-05-26T21:48:23.519Z,98342.91
2019-05-26T21:50:52.718Z,98346.37
2019-05-26T21:53:21.965Z,98346.24
2019-05-26T21:55:51.211Z,98338.65
2019-05-26T21:58:20.435Z,98341.59
2019-05-26T22:00:50.758Z,98342.73
2019-05-26T22:03:19.956Z,98342.51
2019-05-26T22:05:49.186Z,98345.97
2019-05-26T22:08:18.425Z,98351.92
2019-05-26T22:10:47.649Z,98340.92
2019-05-26T22:13:16.839Z,98340.37
2019-05-26T22:15:46.130Z,98346.27
2019-05-26T22:18:15.537Z,98342.33
2019-05-26T22:20:45.249Z,98339.24
2019-05-26T22:23:14.449Z,98346.86
2019-05-26T22:25:43.654Z,98347.78
2019-05-26T22:28:12.936Z,98341.59
2019-05-26T22:30:42.293Z,98342.38
2019-05-26T22:33:11.549Z,98338.52
2019-05-26T22:35:41.134Z,98335.59
2019-05-26T22:38:10.664Z,98333.34
2019-05-26T22:40:39.957Z,98345.30
2019-05-26T22:43:09.227Z,98336.61
2019-05-26T22:45:38.891Z,98334.75
2019-05-26T22:48:08.552Z,98337.17
2019-05-26T22:50:37.878Z,98339.73
2019-05-26T22:53:06.333Z,98333.31
2019-05-26T22:55:34.555Z,98343.30
2019-05-26T22:58:03.140Z,98336.52
2019-05-26T23:00:31.883Z,98335.56
2019-05-26T23:03:00.116Z,98326.47
2019-05-26T23:05:29.298Z,98323.17
2019-05-26T23:07:58.660Z,98332.05
2019-05-26T23:10:27.953Z,98323.95
2019-05-26T23:12:57.444Z,98320.72
2019-05-26T23:15:26.867Z,98327.00
2019-05-26T23:17:56.136Z,98316.82
2019-05-26T23:20:25.438Z,98316.92
2019-05-26T23:22:54.669Z,98316.15
2019-05-26T23:25:23.906Z,98315.78
2019-05-26T23:27:53.110Z,98317.75
2019-05-26T23:30:22.370Z,98314.14
2019-05-26T23:32:51.557Z,98317.97
2019-05-26T23:35:20.795Z,98318.53
2019-05-26T23:37:50.123Z,98315.56
2019-05-26T23:40:19.334Z,98314.52
2019-05-26T23:42:48.578Z,98312.77
2019-05-26T23:45:17.824Z,98308.34
2019-05-26T23:47:47.120Z,98309.25
2019-05-26T23:50:16.408Z,98306.02
2019-05-26T23:52:45.618Z,98303.31
2019-05-26T23:55:15.331Z,98301.55
2019-05-26T23:57:44.629Z,98298.91
